• Join FlightAware (Why Join?)
  • Login
  • US Flag 
07:33AM EST


 

Airport Tracker/Info


-or-


 

Live Flight TrackerFlight Track Log ✈ N910GT ✈ 24-Sep-2013 ✈ KSCX - KLZU

Flight Track Log - Related Links

Times and Time Zones

All times are in EDT time to prevent confusion due to time zone crossing. See the N910GT flight status page for this flight to view local times or setup timezone preferences in your user account.

Time Position Orientation Groundspeed Altitude Reporting Facility
EDT Latitude Longitude Course Direction KTS MPH feet Rate Location/Type
06:17PM 36.3950 -84.5683 172° South 130 150 3,600  Level Indianapolis Center
06:18PM 36.3603 -84.5600 169° South 128 147 4,300 780 Climbing Indianapolis Center
06:20PM 36.3247 -84.5514 169° South 128 147 5,300 1,020 Climbing Indianapolis Center
06:21PM 36.2828 -84.5403 168° South 128 147 6,500 1,020 Climbing Indianapolis Center
06:22PM 36.2508 -84.5317 168° South 120 138 7,500 900 Climbing Indianapolis Center
06:23PM 36.1992 -84.5110 172° South  Level FlightAware Approximate
06:23PM 36.2186 -84.5228 167° South 118 136 8,400  Level Indianapolis Center
06:24PM 36.1828 -84.5139 169° South 129 148 9,200 720 Climbing Indianapolis Center
06:25PM 36.1461 -84.5053 169° South 132 152 10,000 720 Climbing Indianapolis Center
06:26PM 36.1078 -84.4950 168° South 138 159 10,800 720 Climbing Indianapolis Center
06:27PM 36.0683 -84.4869 171° South 142 163 11,600 840 Climbing Indianapolis Center
06:28PM 36.0178 -84.4753 169° South 145 167 12,600 840 Climbing Atlanta Center
06:29PM 35.9803 -84.4622 164° South 145 167 13,400 660 Climbing Atlanta Center
06:30PM 35.9408 -84.4414 157° South 145 167 14,000 300 Climbing Atlanta Center
06:31PM 35.8950 -84.4156 155° Southeast 157 181 14,000  Level Atlanta Center
06:32PM 35.8492 -84.3922 158° South 171 197 14,000  Level Atlanta Center
06:33PM 35.8014 -84.3664 156° South 177 204 14,000  Level Atlanta Center
06:34PM 35.7533 -84.3408 157° South 187 215 14,000  Level Atlanta Center
06:35PM 35.7033 -84.3150 157° South 187 215 14,000  Level Atlanta Center
06:36PM 35.6575 -84.2917 158° South 187 215 14,000  Level Atlanta Center
06:37PM 35.6117 -84.2661 156° South 187 215 14,000  Level Atlanta Center
06:38PM 35.5658 -84.2406 156° South 187 215 14,000  Level Atlanta Center
06:39PM 35.5200 -84.2175 158° South 187 215 14,000  Level Atlanta Center
06:40PM 35.4761 -84.1944 157° South 187 215 14,000  Level Atlanta Center
06:41PM 35.4303 -84.1714 158° South 187 215 14,000  Level Atlanta Center
06:42PM 35.3822 -84.1458 157° South 187 215 14,000  Level Atlanta Center
06:43PM 35.3344 -84.1203 156° South 187 215 14,000  Level Atlanta Center
06:44PM 35.2844 -84.0947 157° South 187 215 14,000  Level Atlanta Center
06:45PM 35.2342 -84.0692 157° South 187 215 14,000  Level Atlanta Center
06:46PM 35.1864 -84.0439 157° South 187 215 14,000  Level Atlanta Center
06:47PM 35.1383 -84.0183 156° South 187 215 14,000  Level Atlanta Center
06:48PM 35.0903 -83.9956 159° South 187 215 14,000  Level Atlanta Center
06:49PM 35.0422 -83.9703 157° South 187 215 14,000  Level Atlanta Center
06:50PM 34.9900 -83.9703 180° South 187 215 14,000  Level Atlanta Center
06:51PM 34.9400 -83.9678 178° South 187 215 14,000  Level Atlanta Center
06:52PM 34.8878 -83.9678 180° South 182 209 14,000  Level Atlanta Center
06:53PM 34.8378 -83.9678 180° South 177 204 14,000 -300 Level Atlanta Center
06:54PM 34.7836 -83.9681 180° South 184 212 13,500 -540 Descending Atlanta Center
06:55PM 34.7356 -83.9681 180° South 189 217 13,000 -600 Descending Atlanta Center
06:56PM 34.6792 -83.9681 180° South 199 229 12,400 -660 Descending Atlanta Center
06:57PM 34.6167 -83.9631 176° South 199 229 11,700 -660 Descending Atlanta Center
06:58PM 34.5644 -83.9631 180° South 189 217 11,100 -600 Descending Atlanta Center
06:59PM 34.5142 -83.9656 182° South 194 223 10,500 -600 Descending Atlanta Center
07:00PM 34.4600 -83.9658 180° South 194 223 9,900 -600 Descending Atlanta Center
07:01PM 34.4058 -83.9658 180° South 199 229 9,300 -600 Descending Atlanta Center
07:02PM 34.3597 -83.9658 180° South 194 223 8,800 -600 Descending Atlanta Center
07:03PM 34.3056 -83.9633 178° South 194 223 8,200 -600 Descending Atlanta Center
07:04PM 34.2533 -83.9658 182° South 194 223 7,600 -600 Descending Atlanta Center
07:05PM 34.2033 -83.9633 178° South 194 223 7,000 -600 Descending Atlanta Center
07:06PM 34.1511 -83.9633 180° South 194 223 6,400 -600 Descending Atlanta Center
07:07PM 34.0969 -83.9636 180° South 194 223 5,800 -660 Descending Atlanta Center
07:08PM 34.0333 -84.0167 215° Southwest 190 219 4,800 -660 Descending Atlanta TRACON
07:09PM 34.0167 -84.0667 248° West 183 211 4,200 -420 Descending Atlanta TRACON
07:10PM 34.0000 -84.1333 253° West 174 200 4,000 -120 Descending Atlanta TRACON
07:11PM 33.9833 -84.1667 239° Southwest 162 186 4,000 -60 Level Atlanta TRACON
07:12PM 33.9333 -84.1833 195° South 147 169 3,900 -480 Descending Atlanta TRACON
07:13PM 33.9000 -84.1667 157° South 177 204 3,200 -480 Descending Atlanta TRACON
07:14PM 33.9167 -84.1167 68° East 141 162 3,000 -120 Descending Atlanta TRACON
07:15PM 33.9333 -84.0833 59° Northeast 125 144 3,000 -300 Level Atlanta TRACON
07:16PM 33.9500 -84.0500 59° Northeast 109 125 2,500 -600 Descending Atlanta TRACON
07:17PM 33.9500 -84.0167 90° East 104 120 1,900 -600 Descending Atlanta TRACON
07:19PM 33.9667 -83.9500 75° East  Level FlightAware Approximate